Terminal Aerodrome Forecast
Issued by NWS

Home | Current Version | Previous Version | Text Only | Print | Product List | Glossary On
Versions: 1 2 3 4 5 6 7 8 9 10 11 12 13 14
000
FTUS44 KLZK 311700 RRA
TAFPBF
TAF
KPBF 311752Z 3118/0118 12008KT P6SM OVC100
     FM010600 14009KT P6SM FEW020 OVC080
     FM010900 18009G15KT P6SM BKN050 OVC080 WS020/20045KT
      TEMPO 0111/0113 -SHRA
     FM011300 19009G15KT 5SM -SHRA SCT017 OVC040 WS020/20045KT=

USA.gov is the U.S. government's official web portal to all federal, state and local government web resources and services.